Time,TemperatureF,DewpointF,PressureIn,WindDirection,WindDirectionDegrees,WindSpeedMPH,WindSpeedGustMPH,Humidity,HourlyPrecipIn,Conditions,Clouds,dailyrainin,SoftwareType,DateUTC
2013-02-11 00:13:00,57.2,52.0,29.94,East,79,1.0,5.0,82,0.00,,,0.00,weatherlink.com 1.10,2013-02-11 06:13:00,
2013-02-11 00:28:00,56.8,49.0,29.96,West,260,1.0,7.0,76,0.00,,,0.00,weatherlink.com 1.10,2013-02-11 06:28:00,
2013-02-11 00:43:00,56.6,47.0,29.96,South,170,3.0,7.0,70,0.00,,,0.00,weatherlink.com 1.10,2013-02-11 06:43:00,
2013-02-11 00:57:00,56.0,45.0,29.97,SSW,198,1.0,6.0,67,0.00,,,0.00,weatherlink.com 1.10,2013-02-11 06:57:00,
2013-02-11 01:12:00,55.3,43.0,29.97,SW,218,0.0,5.0,64,0.00,,,0.00,weatherlink.com 1.10,2013-02-11 07:12:00,
2013-02-11 01:28:00,54.3,42.0,29.98,NW,325,0.0,2.0,63,0.00,,,0.00,weatherlink.com 1.10,2013-02-11 07:28:00,
2013-02-11 01:43:00,53.4,41.0,29.98,SSE,152,0.0,2.0,63,0.00,,,0.00,weatherlink.com 1.10,2013-02-11 07:43:00,
2013-02-11 01:58:00,52.3,40.0,29.98,WSW,240,0.0,1.0,64,0.00,,,0.00,weatherlink.com 1.10,2013-02-11 07:58:00,
2013-02-11 02:13:00,51.0,40.0,29.99,SW,226,1.0,1.0,66,0.00,,,0.00,weatherlink.com 1.10,2013-02-11 08:13:00,
2013-02-11 02:28:00,50.8,39.0,29.99,SW,226,0.0,2.0,65,0.00,,,0.00,weatherlink.com 1.10,2013-02-11 08:28:00,
2013-02-11 02:43:00,50.3,39.0,30.01,West,269,0.0,1.0,65,0.00,,,0.00,weatherlink.com 1.10,2013-02-11 08:43:00,
2013-02-11 02:59:00,49.9,38.0,30.02,WSW,237,0.0,3.0,65,0.00,,,0.00,weatherlink.com 1.10,2013-02-11 08:59:00,
2013-02-11 03:13:00,50.2,37.0,30.01,NW,322,0.0,4.0,61,0.00,,,0.00,weatherlink.com 1.10,2013-02-11 09:13:00,
2013-02-11 03:28:00,50.2,37.0,30.02,ESE,122,0.0,2.0,61,0.00,,,0.00,weatherlink.com 1.10,2013-02-11 09:28:00,
2013-02-11 03:43:00,49.4,37.0,30.03,WNW,294,2.0,3.0,62,0.00,,,0.00,weatherlink.com 1.10,2013-02-11 09:43:00,
2013-02-11 03:58:00,49.3,37.0,30.04,WNW,295,0.0,4.0,63,0.00,,,0.00,weatherlink.com 1.10,2013-02-11 09:58:00,
2013-02-11 04:13:00,48.6,36.0,30.04,WSW,240,0.0,2.0,63,0.00,,,0.00,weatherlink.com 1.10,2013-02-11 10:13:00,
2013-02-11 04:28:00,48.3,36.0,30.04,ESE,111,1.0,4.0,63,0.00,,,0.00,weatherlink.com 1.10,2013-02-11 10:28:00,
2013-02-11 04:43:00,48.5,35.0,30.04,SSW,210,0.0,9.0,60,0.00,,,0.00,weatherlink.com 1.10,2013-02-11 10:43:00,
2013-02-11 04:58:00,47.9,35.0,30.06,WSW,256,2.0,5.0,61,0.00,,,0.00,weatherlink.com 1.10,2013-02-11 10:58:00,
2013-02-11 05:13:00,47.6,34.0,30.07,West,259,2.0,8.0,60,0.00,,,0.00,weatherlink.com 1.10,2013-02-11 11:13:00,
2013-02-11 05:28:00,46.9,33.0,30.08,NW,309,1.0,7.0,59,0.00,,,0.00,weatherlink.com 1.10,2013-02-11 11:28:00,
2013-02-11 05:43:00,46.2,33.0,30.09,WNW,290,2.0,6.0,60,0.00,,,0.00,weatherlink.com 1.10,2013-02-11 11:43:00,
2013-02-11 05:58:00,45.8,33.0,30.09,WNW,300,0.0,5.0,62,0.00,,,0.00,weatherlink.com 1.10,2013-02-11 11:58:00,
2013-02-11 06:14:00,45.3,33.0,30.10,WNW,292,1.0,1.0,62,0.00,,,0.00,weatherlink.com 1.10,2013-02-11 12:14:00,
2013-02-11 06:28:00,45.1,32.0,30.10,WNW,282,1.0,4.0,61,0.00,,,0.00,weatherlink.com 1.10,2013-02-11 12:28:00,
2013-02-11 06:43:00,44.8,32.0,30.11,West,270,0.0,4.0,61,0.00,,,0.00,weatherlink.com 1.10,2013-02-11 12:43:00,
2013-02-11 06:59:00,44.3,31.0,30.11,West,276,0.0,1.0,61,0.00,,,0.00,weatherlink.com 1.10,2013-02-11 12:59:00,
2013-02-11 07:14:00,43.8,31.0,30.11,North,8,0.0,2.0,62,0.00,,,0.00,weatherlink.com 1.10,2013-02-11 13:14:00,
2013-02-11 07:29:00,43.7,31.0,30.13,WNW,296,1.0,2.0,62,0.00,,,0.00,weatherlink.com 1.10,2013-02-11 13:29:00,
2013-02-11 07:44:00,43.9,31.0,30.14,South,184,1.0,3.0,62,0.00,,,0.00,weatherlink.com 1.10,2013-02-11 13:44:00,
2013-02-11 07:59:00,44.1,31.0,30.14,NW,318,0.0,4.0,60,0.00,,,0.00,weatherlink.com 1.10,2013-02-11 13:59:00,
2013-02-11 08:14:00,44.2,31.0,30.16,ENE,59,0.0,5.0,60,0.00,,,0.00,weatherlink.com 1.10,2013-02-11 14:14:00,
2013-02-11 08:29:00,44.4,31.0,30.17,NW,305,0.0,2.0,59,0.00,,,0.00,weatherlink.com 1.10,2013-02-11 14:29:00,
2013-02-11 08:45:00,44.6,31.0,30.16,North,3,1.0,2.0,59,0.00,,,0.00,weatherlink.com 1.10,2013-02-11 14:45:00,
2013-02-11 08:59:00,45.0,31.0,30.16,NW,321,2.0,2.0,58,0.00,,,0.00,weatherlink.com 1.10,2013-02-11 14:59:00,
2013-02-11 09:14:00,45.3,32.0,30.16,North,354,1.0,2.0,60,0.00,,,0.00,weatherlink.com 1.10,2013-02-11 15:14:00,
2013-02-11 09:29:00,45.7,31.0,30.16,North,9,0.0,2.0,57,0.00,,,0.00,weatherlink.com 1.10,2013-02-11 15:29:00,
2013-02-11 09:44:00,46.3,32.0,30.18,North,356,0.0,1.0,57,0.00,,,0.00,weatherlink.com 1.10,2013-02-11 15:44:00,
2013-02-11 09:59:00,47.3,32.0,30.19,SW,215,1.0,1.0,55,0.00,,,0.00,weatherlink.com 1.10,2013-02-11 15:59:00,
2013-02-11 10:14:00,47.7,32.0,30.19,North,358,0.0,2.0,54,0.00,,,0.00,weatherlink.com 1.10,2013-02-11 16:14:00,
2013-02-11 10:29:00,48.1,32.0,30.19,SSW,208,0.0,3.0,54,0.00,,,0.00,weatherlink.com 1.10,2013-02-11 16:29:00,
2013-02-11 10:44:00,49.5,33.0,30.21,SW,230,0.0,5.0,53,0.00,,,0.00,weatherlink.com 1.10,2013-02-11 16:44:00,
2013-02-11 10:59:00,49.4,33.0,30.18,ENE,72,0.0,3.0,54,0.00,,,0.00,weatherlink.com 1.10,2013-02-11 16:59:00,
2013-02-11 11:14:00,52.0,34.0,30.18,SW,236,1.0,3.0,51,0.00,,,0.00,weatherlink.com 1.10,2013-02-11 17:14:00,
2013-02-11 11:29:00,51.8,34.0,30.19,NNW,347,0.0,3.0,50,0.00,,,0.00,weatherlink.com 1.10,2013-02-11 17:29:00,
2013-02-11 11:44:00,51.6,32.0,30.20,SSE,148,2.0,4.0,47,0.00,,,0.00,weatherlink.com 1.10,2013-02-11 17:44:00,
2013-02-11 11:59:00,51.8,33.0,30.20,NE,56,1.0,7.0,49,0.00,,,0.00,weatherlink.com 1.10,2013-02-11 17:59:00,
2013-02-11 12:14:00,52.3,32.0,30.18,NNE,13,2.0,3.0,46,0.00,,,0.00,weatherlink.com 1.10,2013-02-11 18:14:00,
2013-02-11 12:30:00,52.3,34.0,30.18,North,359,0.0,3.0,50,0.00,,,0.00,weatherlink.com 1.10,2013-02-11 18:30:00,
2013-02-11 12:45:00,53.5,32.0,30.17,South,173,0.0,4.0,45,0.00,,,0.00,weatherlink.com 1.10,2013-02-11 18:45:00,
2013-02-11 12:59:00,54.5,33.0,30.16,SW,232,0.0,3.0,44,0.00,,,0.00,weatherlink.com 1.10,2013-02-11 18:59:00,
2013-02-11 13:14:00,56.0,33.0,30.15,South,181,2.0,3.0,42,0.00,,,0.00,weatherlink.com 1.10,2013-02-11 19:14:00,
2013-02-11 13:30:00,55.5,33.0,30.15,ENE,65,1.0,4.0,42,0.00,,,0.00,weatherlink.com 1.10,2013-02-11 19:30:00,
2013-02-11 13:44:00,55.4,32.0,30.15,NE,39,2.0,4.0,42,0.00,,,0.00,weatherlink.com 1.10,2013-02-11 19:44:00,
2013-02-11 13:59:00,56.2,35.0,30.14,North,8,2.0,4.0,45,0.00,,,0.00,weatherlink.com 1.10,2013-02-11 19:59:00,
2013-02-11 14:14:00,56.0,33.0,30.13,NNW,347,1.0,4.0,42,0.00,,,0.00,weatherlink.com 1.10,2013-02-11 20:14:00,
2013-02-11 14:28:00,56.1,31.0,30.13,NNW,339,0.0,5.0,39,0.00,,,0.00,weatherlink.com 1.10,2013-02-11 20:28:00,
2013-02-11 14:45:00,57.1,31.0,30.12,WSW,256,1.0,5.0,38,0.00,,,0.00,weatherlink.com 1.10,2013-02-11 20:45:00,
2013-02-11 14:59:00,57.8,31.0,30.13,SW,214,1.0,4.0,37,0.00,,,0.00,weatherlink.com 1.10,2013-02-11 20:59:00,
2013-02-11 15:14:00,59.0,33.0,30.12,NW,316,3.0,3.0,37,0.00,,,0.00,weatherlink.com 1.10,2013-02-11 21:14:00,
2013-02-11 15:30:00,58.8,31.0,30.11,ENE,61,0.0,3.0,35,0.00,,,0.00,weatherlink.com 1.10,2013-02-11 21:30:00,
2013-02-11 15:44:00,58.5,31.0,30.12,WSW,238,1.0,4.0,35,0.00,,,0.00,weatherlink.com 1.10,2013-02-11 21:44:00,
2013-02-11 15:59:00,58.3,30.0,30.11,NNW,333,1.0,2.0,34,0.00,,,0.00,weatherlink.com 1.10,2013-02-11 21:59:00,
2013-02-11 16:14:00,58.5,29.0,30.11,SSW,207,0.0,1.0,33,0.00,,,0.00,weatherlink.com 1.10,2013-02-11 22:14:00,
2013-02-11 16:29:00,57.9,30.0,30.11,East,85,1.0,3.0,34,0.00,,,0.00,weatherlink.com 1.10,2013-02-11 22:29:00,
2013-02-11 16:44:00,55.7,30.0,30.11,NNE,27,0.0,2.0,37,0.00,,,0.00,weatherlink.com 1.10,2013-02-11 22:44:00,
2013-02-11 16:59:00,54.4,30.0,30.12,North,356,0.0,1.0,39,0.00,,,0.00,weatherlink.com 1.10,2013-02-11 22:59:00,
2013-02-11 17:15:00,53.4,30.0,30.11,NNW,332,0.0,1.0,41,0.00,,,0.00,weatherlink.com 1.10,2013-02-11 23:15:00,
2013-02-11 17:30:00,52.6,30.0,30.10,NW,315,0.0,1.0,43,0.00,,,0.00,weatherlink.com 1.10,2013-02-11 23:30:00,
2013-02-11 17:45:00,51.6,31.0,30.10,NW,305,0.0,0.0,46,0.00,,,0.00,weatherlink.com 1.10,2013-02-11 23:45:00,
2013-02-11 18:00:00,49.7,32.0,30.10,WSW,239,2.0,2.0,50,0.00,,,0.00,weatherlink.com 1.10,2013-02-12 00:00:00,
2013-02-11 18:15:00,48.9,32.0,30.11,West,264,0.0,0.0,53,0.00,,,0.00,weatherlink.com 1.10,2013-02-12 00:15:00,
2013-02-11 18:30:00,47.2,33.0,30.13,West,264,0.0,0.0,58,0.00,,,0.00,weatherlink.com 1.10,2013-02-12 00:30:00,
2013-02-11 18:45:00,46.9,34.0,30.13,North,358,0.0,0.0,61,0.00,,,0.00,weatherlink.com 1.10,2013-02-12 00:45:00,
2013-02-11 19:00:00,48.1,35.0,30.11,NNE,30,0.0,0.0,60,0.00,,,0.00,weatherlink.com 1.10,2013-02-12 01:00:00,
2013-02-11 19:15:00,48.3,35.0,30.12,NNE,19,0.0,0.0,61,0.00,,,0.00,weatherlink.com 1.10,2013-02-12 01:15:00,
2013-02-11 19:30:00,47.7,36.0,30.15,NNE,16,0.0,0.0,64,0.00,,,0.00,weatherlink.com 1.10,2013-02-12 01:30:00,
2013-02-11 19:45:00,47.4,38.0,30.16,North,357,0.0,0.0,70,0.00,,,0.00,weatherlink.com 1.10,2013-02-12 01:45:00,
2013-02-11 20:00:00,47.0,37.0,30.14,North,357,0.0,0.0,68,0.00,,,0.00,weatherlink.com 1.10,2013-02-12 02:00:00,
2013-02-11 20:15:00,46.8,36.0,30.13,NNE,26,0.0,0.0,67,0.00,,,0.00,weatherlink.com 1.10,2013-02-12 02:15:00,
2013-02-11 20:29:00,46.2,36.0,30.15,NNE,26,0.0,0.0,68,0.00,,,0.00,weatherlink.com 1.10,2013-02-12 02:29:00,
2013-02-11 20:45:00,45.9,38.0,30.16,NNE,26,0.0,0.0,73,0.00,,,0.00,weatherlink.com 1.10,2013-02-12 02:45:00,
2013-02-11 20:59:00,45.7,37.0,30.16,NE,40,0.0,0.0,72,0.00,,,0.00,weatherlink.com 1.10,2013-02-12 02:59:00,
2013-02-11 21:15:00,45.1,37.0,30.16,NE,40,0.0,0.0,74,0.00,,,0.00,weatherlink.com 1.10,2013-02-12 03:15:00,
2013-02-11 21:30:00,45.1,37.0,30.14,NE,40,0.0,0.0,73,0.00,,,0.00,weatherlink.com 1.10,2013-02-12 03:30:00,
2013-02-11 21:45:00,45.1,37.0,30.14,NNE,27,0.0,0.0,74,0.00,,,0.00,weatherlink.com 1.10,2013-02-12 03:45:00,
2013-02-11 22:00:00,45.3,38.0,30.14,NNE,29,0.0,0.0,75,0.00,,,0.00,weatherlink.com 1.10,2013-02-12 04:00:00,
2013-02-11 22:15:00,45.0,38.0,30.14,NNE,29,0.0,0.0,77,0.00,,,0.00,weatherlink.com 1.10,2013-02-12 04:15:00,
2013-02-11 22:29:00,44.6,38.0,30.14,NNE,28,0.0,0.0,79,0.00,,,0.00,weatherlink.com 1.10,2013-02-12 04:29:00,
2013-02-11 22:45:00,44.7,39.0,30.15,NE,41,0.0,0.0,79,0.00,,,0.00,weatherlink.com 1.10,2013-02-12 04:45:00,
2013-02-11 23:00:00,44.8,40.0,30.16,South,191,0.0,0.0,82,0.00,,,0.00,weatherlink.com 1.10,2013-02-12 05:00:00,
2013-02-11 23:15:00,44.3,39.0,30.14,South,191,0.0,0.0,83,0.00,,,0.00,weatherlink.com 1.10,2013-02-12 05:15:00,
2013-02-11 23:30:00,44.3,39.0,30.16,South,191,0.0,0.0,82,0.00,,,0.00,weatherlink.com 1.10,2013-02-12 05:30:00,
2013-02-11 23:45:00,44.3,39.0,30.16,SSW,197,0.0,0.0,81,0.00,,,0.00,weatherlink.com 1.10,2013-02-12 05:45:00,